Terminal Aerodrome Forecast
Issued by NWS

Home | Current Version | Previous Version | Text Only | Print | Product List | Glossary On
Versions: 1 2 3 4 5 6 7 8 9 10 11 12 13 14 15 16 17 18
122
FTUS46 KSGX 251120
TAFCRQ
TAF
KCRQ 251120Z 2512/2612 VRB04KT P6SM SKC
     FM252100 28008KT P6SM SKC
     FM260100 VRB04KT P6SM SKC
     FM260800 08005KT P6SM SKC WS015/08020KT=

USA.gov is the U.S. government's official web portal to all federal, state and local government web resources and services.